LA HONDA (LAH)

Elevation: 425' · SAN GREGORIO CR basin · Operator: CAL FIRE

Query executed Tuesday at 20:16:40   clock

Provisional data, subject to change.
Select a sensor type for a plot of data.

Earlier

Date   /   Time   RAIN     TEMP     REL HUM     FUEL MS     FUEL TP     WIND SP     WIND DR     PEAK WS     PEAK WD     SOLAR R     BAT VOL    
(PDT)INCHES   DEG F   %   %   DEG F   MPH   DEG   MPH   DEG   W/M^2   VOLTS  
05/23/2016 20:00 33.80 53 95 10 55 2 272 5 243 23.00 13.4
05/23/2016 21:00 33.81 53 100 11 53 2 252 6 234 1.00 13.3
05/23/2016 22:00 33.82 52 100 14 52 1 279 5 314 0.00 13.2
05/23/2016 23:00 33.83 51 100 18 52 2 317 6 223 0.00 13.1
05/24/2016 00:00 33.83 51 100 21 51 2 283 5 342 0.00 13.0
05/24/2016 01:00 33.84 51 100 23 51 2 259 4 244 0.00 13.0
05/24/2016 02:00 33.85 51 100 24 51 2 250 5 285 0.00 13.0
05/24/2016 03:00 33.85 51 100 24 51 3 260 7 228 0.00 12.9
05/24/2016 04:00 33.85 51 100 25 51 2 253 6 219 0.00 12.9
05/24/2016 05:00 33.85 51 100 26 51 3 256 8 222 0.00 12.9
05/24/2016 06:00 33.86 50 100 26 51 2 252 6 205 1.00 12.9
05/24/2016 07:00 33.86 51 100 26 52 3 238 5 223 15.00 12.9
05/24/2016 08:00 33.87 52 100 25 54 1 273 5 226 70.00 13.2
05/24/2016 09:00 33.87 53 100 25 56 2 269 6 240 156.00 14.5
05/24/2016 10:00 33.87 60 88 25 63 4 263 8 295 488.00 13.8
05/24/2016 11:00 33.87 60 79 24 64 3 263 8 226 486.00 13.7
05/24/2016 12:00 33.87 63 68 18 73 4 321 8 227 814.00 13.7
05/24/2016 13:00 33.87 65 61 14 86 5 258 14 243 861.00 13.7
05/24/2016 14:00 33.87 66 58 10 93 5 256 14 250 985.00 13.7
05/24/2016 15:00 33.87 65 59 9 93 4 283 14 233 904.00 13.7
05/24/2016 16:00 33.87 63 61 8 84 4 261 10 232 760.00 13.7
05/24/2016 17:00 33.87 60 63 8 76 5 248 12 247 524.00 13.7
05/24/2016 18:00 33.87 56 80 9 62 3 270 11 226 165.00 14.2
05/24/2016 19:00 -- -- -- -- -- -- -- -- -- -- --
05/24/2016 20:00 33.87 53 86 10 54 3 252 9 271 24.00 13.5

Later | Latest

Warning! This data is preliminary and subject to revision.

Show LAH Map | 24 Hours LAH Data | Plot all LAH Sensors | Daily LAH Data | LAH Info